createdAt,value
2023-04-16T00:00:14.059Z,95349.31
2023-04-16T00:02:43.632Z,95355.56
2023-04-16T00:05:13.297Z,95351.50
2023-04-16T00:07:42.873Z,95352.09
2023-04-16T00:10:13.897Z,95357.41
2023-04-16T00:12:43.341Z,95352.31
2023-04-16T00:15:13.101Z,95358.22
2023-04-16T00:17:42.718Z,95360.06
2023-04-16T00:20:12.460Z,95353.94
2023-04-16T00:22:41.907Z,95358.00
2023-04-16T00:25:11.433Z,95354.63
2023-04-16T00:27:42.338Z,95354.97
2023-04-16T00:30:12.647Z,95359.72
2023-04-16T00:32:42.312Z,95346.63
2023-04-16T00:35:11.812Z,95341.38
2023-04-16T00:37:41.327Z,95347.44
2023-04-16T00:40:12.294Z,95349.13
2023-04-16T00:42:43.138Z,95353.22
2023-04-16T00:45:13.301Z,95343.00
2023-04-16T00:47:42.875Z,95347.66
2023-04-16T00:50:13.474Z,95356.25
2023-04-16T00:52:43.482Z,95356.81
2023-04-16T00:55:13.504Z,95359.38
2023-04-16T00:57:44.493Z,95354.84
2023-04-16T01:00:15.492Z,95349.13
2023-04-16T01:02:45.157Z,95352.03
2023-04-16T01:05:14.692Z,95352.84
2023-04-16T01:07:44.089Z,95349.63
2023-04-16T01:10:13.590Z,95348.47
2023-04-16T01:12:44.929Z,95362.47
2023-04-16T01:15:14.430Z,95354.22
2023-04-16T01:17:45.807Z,95351.09
2023-04-16T01:20:15.675Z,95355.50
2023-04-16T01:22:46.506Z,95351.78
2023-04-16T01:25:16.896Z,95362.16
2023-04-16T01:27:50.712Z,95362.84
2023-04-16T01:30:20.428Z,95356.94
2023-04-16T01:33:01.663Z,95360.84
2023-04-16T01:35:32.165Z,95355.28
2023-04-16T01:38:03.127Z,95355.50
2023-04-16T01:40:32.617Z,95360.84
2023-04-16T01:43:02.530Z,95357.47
2023-04-16T01:45:34.070Z,95363.25
2023-04-16T01:48:04.577Z,95367.03
2023-04-16T01:50:34.667Z,95376.97
2023-04-16T01:53:05.600Z,95378.69
2023-04-16T01:55:35.824Z,95380.91
2023-04-16T01:58:07.412Z,95378.13
2023-04-16T02:00:38.074Z,95377.69
2023-04-16T02:03:07.923Z,95370.25
2023-04-16T02:05:37.633Z,95367.22
2023-04-16T02:08:08.928Z,95364.81
2023-04-16T02:10:38.460Z,95367.78
2023-04-16T02:13:08.178Z,95369.88
2023-04-16T02:15:37.672Z,95365.63
2023-04-16T02:18:07.309Z,95374.50
2023-04-16T02:20:42.408Z,95374.16
2023-04-16T02:23:15.153Z,95375.47
2023-04-16T02:25:48.249Z,95378.78
2023-04-16T02:28:19.284Z,95375.19
2023-04-16T02:30:49.419Z,95374.72
2023-04-16T02:33:20.477Z,95376.22
2023-04-16T02:35:57.985Z,95376.94
2023-04-16T02:38:28.838Z,95377.50
2023-04-16T02:40:58.947Z,95373.78
2023-04-16T02:43:28.873Z,95373.47
2023-04-16T02:45:59.570Z,95369.50
2023-04-16T02:48:29.154Z,95373.44
2023-04-16T02:50:58.793Z,95374.47
2023-04-16T02:53:29.716Z,95378.56
2023-04-16T02:55:59.400Z,95383.31
2023-04-16T02:58:28.902Z,95377.56
2023-04-16T03:00:58.559Z,95382.88
2023-04-16T03:03:28.241Z,95383.69
2023-04-16T03:05:57.812Z,95396.44
2023-04-16T03:08:29.243Z,95388.88
2023-04-16T03:10:58.699Z,95389.47
2023-04-16T03:13:28.098Z,95386.34
2023-04-16T03:15:57.545Z,95388.09
2023-04-16T03:18:27.006Z,95394.47
2023-04-16T03:20:56.486Z,95395.28
2023-04-16T03:23:26.374Z,95391.34
2023-04-16T03:25:57.220Z,95391.81
2023-04-16T03:28:27.567Z,95390.66
2023-04-16T03:30:57.097Z,95397.94
2023-04-16T03:33:27.031Z,95402.91
2023-04-16T03:35:58.082Z,95394.69
2023-04-16T03:38:29.485Z,95396.22
2023-04-16T03:41:02.660Z,95397.47
2023-04-16T03:43:35.181Z,95404.53
2023-04-16T03:46:04.762Z,95403.63
2023-04-16T03:48:34.301Z,95404.09
2023-04-16T03:51:03.916Z,95410.56
2023-04-16T03:53:33.345Z,95407.66
2023-04-16T03:56:04.779Z,95410.44
2023-04-16T03:58:34.311Z,95403.28
2023-04-16T04:01:03.727Z,95410.81
2023-04-16T04:03:33.436Z,95423.06
2023-04-16T04:06:03.293Z,95414.72
2023-04-16T04:08:33.165Z,95415.53
2023-04-16T04:11:04.111Z,95423.19
2023-04-16T04:13:35.105Z,95425.28
2023-04-16T04:16:05.458Z,95419.38
2023-04-16T04:18:35.513Z,95423.53
2023-04-16T04:21:08.114Z,95418.22
2023-04-16T04:23:38.414Z,95423.53
2023-04-16T04:26:10.476Z,95426.66
2023-04-16T04:28:40.133Z,95423.53
2023-04-16T04:31:09.678Z,95422.59
2023-04-16T04:33:39.168Z,95440.78
2023-04-16T04:36:09.635Z,95431.28
2023-04-16T04:38:39.585Z,95431.75
2023-04-16T04:41:10.599Z,95437.78
2023-04-16T04:43:41.228Z,95440.94
2023-04-16T04:46:10.779Z,95445.09
2023-04-16T04:48:40.327Z,95449.97
2023-04-16T04:51:09.795Z,95449.16
2023-04-16T04:53:39.251Z,95450.66
2023-04-16T04:56:12.805Z,95449.84
2023-04-16T04:58:43.441Z,95454.00
2023-04-16T05:01:12.937Z,95454.78
2023-04-16T05:03:42.485Z,95448.78
2023-04-16T05:06:12.123Z,95445.22
2023-04-16T05:08:41.658Z,95453.28
2023-04-16T05:11:12.475Z,95457.00
2023-04-16T05:13:41.935Z,95455.06
2023-04-16T05:16:11.562Z,95458.28
2023-04-16T05:18:41.400Z,95467.78
2023-04-16T05:21:10.898Z,95467.44
2023-04-16T05:23:40.368Z,95469.28
2023-04-16T05:26:11.221Z,95471.13
2023-04-16T05:28:40.894Z,95474.50
2023-04-16T05:31:10.389Z,95471.59
2023-04-16T05:33:39.881Z,95470.31
2023-04-16T05:36:09.572Z,95473.91
2023-04-16T05:38:39.022Z,95477.84
2023-04-16T05:41:08.650Z,95471.47
2023-04-16T05:43:39.474Z,95480.50
2023-04-16T05:46:09.006Z,95477.63
2023-04-16T05:48:38.588Z,95483.66
2023-04-16T05:51:08.377Z,95483.41
2023-04-16T05:53:38.312Z,95485.84
2023-04-16T05:56:09.308Z,95487.47
2023-04-16T05:58:40.130Z,95483.53
2023-04-16T06:01:11.785Z,95482.03
2023-04-16T06:03:41.298Z,95491.97
2023-04-16T06:06:11.152Z,95491.16
2023-04-16T06:08:40.816Z,95486.19
2023-04-16T06:11:10.331Z,95494.19
2023-04-16T06:13:41.442Z,95494.06
2023-04-16T06:16:11.336Z,95492.66
2023-04-16T06:18:41.079Z,95500.19
2023-04-16T06:21:10.793Z,95498.47
2023-04-16T06:23:40.601Z,95492.22
2023-04-16T06:26:10.102Z,95501.13
2023-04-16T06:28:41.179Z,95496.72
2023-04-16T06:31:10.909Z,95501.72
2023-04-16T06:33:40.699Z,95501.72
2023-04-16T06:36:11.485Z,95495.56
2023-04-16T06:38:41.220Z,95502.88
2023-04-16T06:41:10.919Z,95508.19
2023-04-16T06:43:41.849Z,95507.59
2023-04-16T06:46:11.493Z,95506.19
2023-04-16T06:48:40.964Z,95509.22
2023-04-16T06:51:10.627Z,95507.13
2023-04-16T06:53:40.105Z,95511.63
2023-04-16T06:56:10.281Z,95505.63
2023-04-16T06:58:41.090Z,95509.44
2023-04-16T07:01:10.654Z,95517.91
2023-04-16T07:03:40.297Z,95518.91
2023-04-16T07:06:10.320Z,95513.00
2023-04-16T07:08:39.746Z,95517.38
2023-04-16T07:11:09.273Z,95520.06
2023-04-16T07:13:38.721Z,95514.72
2023-04-16T07:16:09.763Z,95517.50
2023-04-16T07:18:39.509Z,95520.03
2023-04-16T07:21:09.029Z,95520.34
2023-04-16T07:23:38.434Z,95516.97
2023-04-16T07:26:08.207Z,95521.38
2023-04-16T07:28:37.668Z,95523.19
2023-04-16T07:31:09.323Z,95516.06
2023-04-16T07:33:38.885Z,95520.03
2023-04-16T07:36:08.963Z,95517.97
2023-04-16T07:38:38.482Z,95526.56
2023-04-16T07:41:08.012Z,95522.97
2023-04-16T07:43:38.164Z,95532.81
2023-04-16T07:46:09.234Z,95527.72
2023-04-16T07:48:38.725Z,95521.16
2023-04-16T07:51:08.417Z,95530.31
2023-04-16T07:53:38.025Z,95533.28
2023-04-16T07:56:09.186Z,95529.72
2023-04-16T07:58:38.660Z,95536.69
2023-04-16T08:01:09.833Z,95532.25
2023-04-16T08:03:39.405Z,95536.25
2023-04-16T08:06:09.032Z,95534.59
2023-04-16T08:08:38.581Z,95545.59
2023-04-16T08:11:08.233Z,95546.06
2023-04-16T08:13:38.133Z,95545.69
2023-04-16T08:16:09.696Z,95546.97
2023-04-16T08:18:39.260Z,95554.00
2023-04-16T08:21:08.744Z,95553.84
2023-04-16T08:23:38.273Z,95554.56
2023-04-16T08:26:07.788Z,95557.81
2023-04-16T08:28:37.252Z,95560.81
2023-04-16T08:31:06.997Z,95560.88
2023-04-16T08:33:38.404Z,95566.00
2023-04-16T08:36:08.037Z,95566.31
2023-04-16T08:38:37.534Z,95571.59
2023-04-16T08:41:10.708Z,95569.88
2023-04-16T08:43:46.115Z,95581.00
2023-04-16T08:46:18.114Z,95578.41
2023-04-16T08:48:55.178Z,95582.84
2023-04-16T08:51:27.400Z,95576.22
2023-04-16T08:54:10.635Z,95581.00
2023-04-16T08:56:43.320Z,95579.78
2023-04-16T08:59:13.517Z,95580.22
2023-04-16T09:01:43.410Z,95576.41
2023-04-16T09:04:17.083Z,95580.81
2023-04-16T09:06:48.810Z,95577.47
2023-04-16T09:09:19.628Z,95582.41
2023-04-16T09:11:53.704Z,95583.56
2023-04-16T09:14:23.314Z,95590.38
2023-04-16T09:16:55.543Z,95581.41
2023-04-16T09:19:26.421Z,95586.94
2023-04-16T09:21:55.937Z,95587.91
2023-04-16T09:24:25.858Z,95596.19
2023-04-16T09:26:56.906Z,95595.69
2023-04-16T09:29:38.008Z,95600.81
2023-04-16T09:32:10.265Z,95595.88
2023-04-16T09:35:00.662Z,95595.63
2023-04-16T09:37:32.117Z,95592.22
2023-04-16T09:40:04.030Z,95593.09
2023-04-16T09:42:37.916Z,95587.81
2023-04-16T09:45:09.150Z,95585.81
2023-04-16T09:47:44.550Z,95597.75
2023-04-16T09:50:19.700Z,95598.25
2023-04-16T09:52:51.742Z,95602.47
2023-04-16T09:55:28.435Z,95602.19
2023-04-16T09:58:01.651Z,95604.19
2023-04-16T10:00:32.290Z,95595.00
2023-04-16T10:03:07.054Z,95601.31
2023-04-16T10:05:38.356Z,95596.34
2023-04-16T10:08:14.895Z,95604.69
2023-04-16T10:10:44.526Z,95596.59
2023-04-16T10:13:17.522Z,95600.41
2023-04-16T10:15:47.241Z,95601.69
2023-04-16T10:18:18.697Z,95603.66
2023-04-16T10:20:50.556Z,95597.38
2023-04-16T10:23:22.396Z,95603.06
2023-04-16T10:25:54.160Z,95603.94
2023-04-16T10:28:25.823Z,95611.09
2023-04-16T10:30:58.418Z,95603.16
2023-04-16T10:33:33.722Z,95597.09
2023-04-16T10:36:13.926Z,95597.66
2023-04-16T10:38:48.700Z,95591.00
2023-04-16T10:41:18.426Z,95599.34
2023-04-16T10:43:51.653Z,95598.94
2023-04-16T10:46:23.763Z,95601.84
2023-04-16T10:48:57.308Z,95602.91
2023-04-16T10:51:32.430Z,95598.66
2023-04-16T10:54:20.989Z,95601.69
2023-04-16T10:56:52.137Z,95601.69
2023-04-16T10:59:23.815Z,95601.22
2023-04-16T11:02:01.284Z,95594.03
2023-04-16T11:04:43.618Z,95599.69
2023-04-16T11:07:21.497Z,95598.63
2023-04-16T11:09:57.629Z,95599.78
2023-04-16T11:12:35.340Z,95595.78
2023-04-16T11:15:08.211Z,95612.19
2023-04-16T11:31:34.950Z,95607.00
2023-04-16T11:34:05.929Z,95616.38
2023-04-16T11:36:45.076Z,95617.44
2023-04-16T11:39:14.684Z,95613.06
2023-04-16T11:41:44.856Z,95620.00
2023-04-16T11:44:22.761Z,95617.50
2023-04-16T11:46:55.018Z,95623.69
2023-04-16T11:49:33.827Z,95627.72
2023-04-16T11:52:03.361Z,95624.16
2023-04-16T11:54:34.901Z,95620.91
2023-04-16T11:57:05.440Z,95628.88
2023-04-16T11:59:36.919Z,95629.69
2023-04-16T12:02:07.969Z,95624.81
2023-04-16T12:04:37.650Z,95629.97
2023-04-16T12:07:09.727Z,95626.47
2023-04-16T12:09:42.716Z,95626.56
2023-04-16T12:12:30.857Z,95629.09
2023-04-16T12:15:03.606Z,95624.34
2023-04-16T12:17:37.250Z,95629.44
2023-04-16T12:20:13.473Z,95627.75
2023-04-16T12:22:47.521Z,95633.38
2023-04-16T12:25:18.983Z,95625.31
2023-04-16T12:27:53.022Z,95628.69
2023-04-16T12:30:26.099Z,95634.81
2023-04-16T12:33:19.001Z,95639.59
2023-04-16T12:35:49.256Z,95630.47
2023-04-16T12:38:19.206Z,95639.19
2023-04-16T12:40:48.913Z,95639.69
2023-04-16T12:43:19.630Z,95643.19
2023-04-16T12:45:49.407Z,95639.19
2023-04-16T12:48:20.276Z,95640.31
2023-04-16T12:50:49.771Z,95643.75
2023-04-16T12:53:19.205Z,95646.41
2023-04-16T12:55:48.748Z,95644.81
2023-04-16T12:58:18.309Z,95649.84
2023-04-16T13:00:47.914Z,95641.00
2023-04-16T13:03:18.872Z,95635.31
2023-04-16T13:05:48.459Z,95640.94
2023-04-16T13:08:17.895Z,95645.22
2023-04-16T13:10:47.348Z,95647.66
2023-04-16T13:13:17.055Z,95635.31
2023-04-16T13:15:46.574Z,95640.44
2023-04-16T13:18:16.083Z,95643.44
2023-04-16T13:20:46.982Z,95630.59
2023-04-16T13:23:16.609Z,95633.03
2023-04-16T13:25:46.089Z,95637.31
2023-04-16T13:28:15.524Z,95638.13
2023-04-16T13:30:45.100Z,95641.06
2023-04-16T13:33:14.805Z,95640.50
2023-04-16T13:35:44.307Z,95639.94
2023-04-16T13:38:15.146Z,95640.19
2023-04-16T13:40:44.792Z,95639.13
2023-04-16T13:43:16.445Z,95649.53
2023-04-16T13:45:46.372Z,95650.50
2023-04-16T13:48:16.014Z,95651.03
2023-04-16T13:50:45.841Z,95657.22
2023-04-16T13:53:16.661Z,95643.00
2023-04-16T13:55:46.560Z,95653.44
2023-04-16T13:58:16.115Z,95654.78
2023-04-16T14:00:45.770Z,95651.78
2023-04-16T14:03:15.925Z,95645.63
2023-04-16T14:05:45.439Z,95649.41
2023-04-16T14:08:16.982Z,95643.53
2023-04-16T14:10:46.538Z,95644.41
2023-04-16T14:13:16.509Z,95642.31
2023-04-16T14:15:46.087Z,95641.81
2023-04-16T14:18:15.556Z,95647.78
2023-04-16T14:20:45.277Z,95646.66
2023-04-16T14:23:16.125Z,95647.22
2023-04-16T14:25:45.693Z,95647.03
2023-04-16T14:28:15.952Z,95651.91
2023-04-16T14:30:45.451Z,95645.75
2023-04-16T14:33:14.875Z,95654.28
2023-04-16T14:35:44.789Z,95649.41
2023-04-16T14:38:15.825Z,95651.28
2023-04-16T14:40:45.414Z,95652.91
2023-04-16T14:43:14.964Z,95653.16
2023-04-16T14:45:44.680Z,95662.00
2023-04-16T14:48:14.237Z,95653.72
2023-04-16T14:50:44.487Z,95648.34
2023-04-16T14:53:13.996Z,95654.78
2023-04-16T14:55:45.056Z,95656.97
2023-04-16T14:58:14.498Z,95656.16
2023-04-16T15:00:44.072Z,95656.97
2023-04-16T15:03:13.637Z,95662.88
2023-04-16T15:05:43.313Z,95663.69
2023-04-16T15:08:12.748Z,95662.88
2023-04-16T15:10:43.301Z,95666.38
2023-04-16T15:13:14.275Z,95667.91
2023-04-16T15:15:44.410Z,95671.09
2023-04-16T15:18:14.153Z,95667.84
2023-04-16T15:20:43.756Z,95672.41
2023-04-16T15:23:13.253Z,95668.59
2023-04-16T15:25:42.729Z,95676.88
2023-04-16T15:28:13.631Z,95671.69
2023-04-16T15:30:44.088Z,95677.56
2023-04-16T15:33:13.881Z,95665.97
2023-04-16T15:35:43.998Z,95674.03
2023-04-16T15:38:13.652Z,95662.75
2023-04-16T15:40:43.214Z,95673.69
2023-04-16T15:43:14.175Z,95667.53
2023-04-16T15:45:43.806Z,95671.03
2023-04-16T15:48:13.350Z,95670.72
2023-04-16T15:50:44.095Z,95672.56
2023-04-16T15:53:13.943Z,95670.94
2023-04-16T15:55:43.956Z,95681.09
2023-04-16T15:58:14.853Z,95682.16
2023-04-16T16:00:49.747Z,95687.81
2023-04-16T16:03:19.946Z,95688.06
2023-04-16T16:05:49.586Z,95690.44
2023-04-16T16:08:19.266Z,95692.31
2023-04-16T16:10:48.963Z,95682.88
2023-04-16T16:13:19.998Z,95687.44
2023-04-16T16:15:50.687Z,95688.97
2023-04-16T16:18:21.968Z,95679.75
2023-04-16T16:20:52.888Z,95685.59
2023-04-16T16:23:25.383Z,95686.09
2023-04-16T16:25:55.343Z,95693.22
2023-04-16T16:28:26.639Z,95687.06
2023-04-16T16:30:58.707Z,95698.25
2023-04-16T16:33:29.035Z,95699.31
2023-04-16T16:35:58.575Z,95695.00
2023-04-16T16:38:28.089Z,95689.91
2023-04-16T16:40:57.662Z,95696.59
2023-04-16T16:43:28.476Z,95695.78
2023-04-16T16:45:58.046Z,95693.91
2023-04-16T16:48:27.556Z,95700.31
2023-04-16T16:50:57.066Z,95696.81
2023-04-16T16:53:27.272Z,95692.53
2023-04-16T16:55:56.746Z,95697.63
2023-04-16T16:58:27.569Z,95694.63
2023-04-16T17:00:57.030Z,95697.88
2023-04-16T17:03:26.635Z,95706.41
2023-04-16T17:05:56.176Z,95702.34
2023-04-16T17:08:25.747Z,95705.00
2023-04-16T17:10:55.214Z,95708.25
2023-04-16T17:13:25.277Z,95712.56
2023-04-16T17:15:56.075Z,95712.06
2023-04-16T17:18:25.612Z,95714.75
2023-04-16T17:20:55.145Z,95711.50
2023-04-16T17:23:24.670Z,95714.41
2023-04-16T17:25:54.109Z,95711.25
2023-04-16T17:28:23.576Z,95713.38
2023-04-16T17:30:56.218Z,95707.94
2023-04-16T17:33:25.679Z,95710.03
2023-04-16T17:35:55.124Z,95705.66
2023-04-16T17:38:24.658Z,95708.09
2023-04-16T17:40:54.084Z,95714.72
2023-04-16T17:43:24.058Z,95718.94
2023-04-16T17:45:54.947Z,95715.44
2023-04-16T17:48:24.557Z,95721.94
2023-04-16T17:50:54.266Z,95728.00
2023-04-16T17:53:23.703Z,95736.78
2023-04-16T17:55:55.259Z,95735.66
2023-04-16T17:58:26.908Z,95735.56
2023-04-16T18:00:57.690Z,95738.38
2023-04-16T18:03:27.284Z,95738.84
2023-04-16T18:05:56.844Z,95745.00
2023-04-16T18:08:27.347Z,95751.06
2023-04-16T18:10:57.138Z,95744.09
2023-04-16T18:13:27.129Z,95749.44
2023-04-16T18:15:58.134Z,95753.44
2023-04-16T18:18:27.823Z,95751.56
2023-04-16T18:20:57.242Z,95751.81
2023-04-16T18:23:27.259Z,95763.56
2023-04-16T18:25:57.275Z,95759.03
2023-04-16T18:28:27.628Z,95760.88
2023-04-16T18:31:02.871Z,95760.31
2023-04-16T18:36:06.424Z,95770.78
2023-04-16T18:38:39.562Z,95767.28
2023-04-16T18:41:18.437Z,95776.13
2023-04-16T18:43:48.508Z,95772.41
2023-04-16T18:46:19.474Z,95778.78
2023-04-16T18:48:48.990Z,95777.16
2023-04-16T18:51:18.909Z,95779.84
2023-04-16T18:53:48.447Z,95779.84
2023-04-16T18:56:18.386Z,95783.56
2023-04-16T18:58:48.013Z,95785.19
2023-04-16T19:01:18.822Z,95790.53
2023-04-16T19:03:48.381Z,95795.66
2023-04-16T19:06:17.902Z,95797.28
2023-04-16T19:08:47.343Z,95796.47
2023-04-16T19:11:16.797Z,95801.56
2023-04-16T19:13:46.438Z,95806.91
2023-04-16T19:16:16.917Z,95802.38
2023-04-16T19:18:47.744Z,95810.41
2023-04-16T19:21:17.158Z,95809.59
2023-04-16T19:23:46.776Z,95821.09
2023-04-16T19:26:16.300Z,95814.13
2023-04-16T19:28:45.948Z,95818.44
2023-04-16T19:31:15.692Z,95815.75
2023-04-16T19:33:45.212Z,95820.28
2023-04-16T19:36:16.089Z,95820.28
2023-04-16T19:38:45.787Z,95817.38
2023-04-16T19:41:15.239Z,95816.56
2023-04-16T19:43:44.691Z,95818.97
2023-04-16T19:46:15.415Z,95832.09
2023-04-16T19:48:45.123Z,95831.06
2023-04-16T19:51:16.129Z,95825.72
2023-04-16T19:53:45.667Z,95832.44
2023-04-16T19:56:15.952Z,95822.78
2023-04-16T19:58:45.567Z,95829.78
2023-04-16T20:01:15.129Z,95836.75
2023-04-16T20:03:44.554Z,95828.72
2023-04-16T20:06:17.325Z,95837.78
2023-04-16T20:08:46.989Z,95831.63
2023-04-16T20:11:17.620Z,95838.59
2023-04-16T20:13:48.337Z,95829.78
2023-04-16T20:16:22.820Z,95841.75
2023-04-16T20:18:54.415Z,95824.91
2023-04-16T20:21:26.266Z,95827.81
2023-04-16T20:23:55.738Z,95821.91
2023-04-16T20:26:28.257Z,95829.13
2023-04-16T20:28:57.832Z,95826.69
2023-04-16T20:31:27.379Z,95828.78
2023-04-16T20:33:56.901Z,95826.00
2023-04-16T20:36:27.893Z,95829.38
2023-04-16T20:38:59.342Z,95825.53
2023-04-16T20:41:30.215Z,95833.47
2023-04-16T20:44:05.124Z,95828.03
2023-04-16T20:46:36.273Z,95820.72
2023-04-16T20:49:08.203Z,95823.75
2023-04-16T20:51:39.064Z,95821.78
2023-04-16T20:54:10.168Z,95825.16
2023-04-16T20:56:39.608Z,95825.59
2023-04-16T20:59:09.213Z,95821.81
2023-04-16T21:01:38.891Z,95819.38
2023-04-16T21:04:08.605Z,95826.81
2023-04-16T21:06:42.860Z,95817.16
2023-04-16T21:09:12.869Z,95819.25
2023-04-16T21:11:42.516Z,95814.13
2023-04-16T21:14:12.406Z,95811.81
2023-04-16T21:16:41.846Z,95814.25
2023-04-16T21:19:11.428Z,95818.78
2023-04-16T21:21:42.628Z,95821.13
2023-04-16T21:24:12.064Z,95819.72
2023-04-16T21:26:41.574Z,95817.72
2023-04-16T21:29:11.240Z,95825.13
2023-04-16T21:31:40.938Z,95822.47
2023-04-16T21:34:10.473Z,95828.63
2023-04-16T21:36:41.278Z,95833.16
2023-04-16T21:39:11.049Z,95829.44
2023-04-16T21:41:40.818Z,95837.69
2023-04-16T21:44:10.329Z,95828.84
2023-04-16T21:46:39.765Z,95827.00
2023-04-16T21:49:09.549Z,95827.22
2023-04-16T21:51:40.638Z,95837.91
2023-04-16T21:54:11.704Z,95828.84
2023-04-16T21:56:41.112Z,95837.69
2023-04-16T21:59:10.828Z,95835.00
2023-04-16T22:01:40.381Z,95832.34
2023-04-16T22:04:09.950Z,95828.63
2023-04-16T22:06:40.236Z,95828.03
2023-04-16T22:09:12.367Z,95836.63
2023-04-16T22:11:41.836Z,95828.03
2023-04-16T22:14:11.287Z,95836.63
2023-04-16T22:16:41.868Z,95829.22
2023-04-16T22:19:11.493Z,95830.72
2023-04-16T22:21:41.313Z,95827.81
2023-04-16T22:24:12.233Z,95824.09
2023-04-16T22:26:41.772Z,95835.47
2023-04-16T22:29:11.530Z,95825.72
2023-04-16T22:31:41.277Z,95823.63
2023-04-16T22:34:10.799Z,95822.25
2023-04-16T22:36:41.228Z,95823.75
2023-04-16T22:39:12.179Z,95824.47
2023-04-16T22:41:42.381Z,95819.81
2023-04-16T22:44:11.892Z,95823.31
2023-04-16T22:46:41.375Z,95823.53
2023-04-16T22:49:11.231Z,95822.50
2023-04-16T22:51:41.251Z,95820.28
2023-04-16T22:54:13.884Z,95814.34
2023-04-16T22:56:43.541Z,95817.97
2023-04-16T22:59:13.303Z,95817.84
2023-04-16T23:01:43.151Z,95815.41
2023-04-16T23:04:12.729Z,95817.13
2023-04-16T23:06:42.201Z,95815.16
2023-04-16T23:09:13.205Z,95817.81
2023-04-16T23:11:42.816Z,95819.56
2023-04-16T23:16:43.289Z,95824.56
2023-04-16T23:19:14.949Z,95822.47
2023-04-16T23:21:44.609Z,95828.50
2023-04-16T23:24:15.547Z,95815.97
2023-04-16T23:26:45.055Z,95819.69
2023-04-16T23:29:14.598Z,95817.84
2023-04-16T23:31:44.095Z,95818.28
2023-04-16T23:34:13.556Z,95823.16
2023-04-16T23:36:43.020Z,95829.97
2023-04-16T23:39:13.966Z,95828.81
2023-04-16T23:41:43.422Z,95822.34
2023-04-16T23:44:12.811Z,95817.69
2023-04-16T23:46:42.292Z,95816.88
2023-04-16T23:49:12.102Z,95825.31
2023-04-16T23:51:41.646Z,95825.56
2023-04-16T23:54:11.209Z,95824.16
2023-04-16T23:56:42.107Z,95816.06
2023-04-16T23:59:11.844Z,95821.63
